Hamilton, Pennsylvania
Current Conditions -  °F | °C
As of 4:35 AM on Thursday 23 Oct 2014 (Local Time) from KIDI Reporting Station
Overcast Overcast  
Wind Chill: 42°   Ceiling: 1500
Heat Index: 45°   Visibility: 10mi
Dew Point: 41°   Wind: 5mph
Humidity: 87%   Direction: 310°NW
Pressure: 30.11"   Gusts: NA
Location:  40.92°N, 79.08°W
Report Text: KIDI 230835Z AUTO 31004KT 10SM BKN015 OVC020 07/05 A3011 RMK A01
Loading
Personal Weather Stations






























Interactive Weather Map
Tropical Storm Tracking
New forecast layout! Learn more

10-Day Weather Forecast

Advertisements
Track Severe Weather on mobile